sensor_id;sensor_type;location;lat;lon;timestamp;temperature;humidity
71188;DHT22;58893;53.130;8.158;2023-04-03T00:02:17;7.00;57.10
71188;DHT22;58893;53.130;8.158;2023-04-03T00:04:42;7.00;57.20
71188;DHT22;58893;53.130;8.158;2023-04-03T00:07:08;7.00;57.40
71188;DHT22;58893;53.130;8.158;2023-04-03T00:09:34;7.00;57.50
71188;DHT22;58893;53.130;8.158;2023-04-03T00:11:59;6.90;57.60
71188;DHT22;58893;53.130;8.158;2023-04-03T00:14:25;6.90;57.80
71188;DHT22;58893;53.130;8.158;2023-04-03T00:16:51;6.90;57.90
71188;DHT22;58893;53.130;8.158;2023-04-03T00:19:16;6.90;58.00
71188;DHT22;58893;53.130;8.158;2023-04-03T00:21:42;6.90;58.10
71188;DHT22;58893;53.130;8.158;2023-04-03T00:24:08;6.90;58.20
71188;DHT22;58893;53.130;8.158;2023-04-03T00:26:33;6.90;58.30
71188;DHT22;58893;53.130;8.158;2023-04-03T00:28:59;6.80;58.30
71188;DHT22;58893;53.130;8.158;2023-04-03T00:31:25;6.80;58.40
71188;DHT22;58893;53.130;8.158;2023-04-03T00:33:50;6.80;58.60
71188;DHT22;58893;53.130;8.158;2023-04-03T00:36:16;6.70;58.70
71188;DHT22;58893;53.130;8.158;2023-04-03T00:38:44;6.70;58.80
71188;DHT22;58893;53.130;8.158;2023-04-03T00:41:10;6.70;58.90
71188;DHT22;58893;53.130;8.158;2023-04-03T00:43:36;6.70;59.00
71188;DHT22;58893;53.130;8.158;2023-04-03T00:46:02;6.70;59.20
71188;DHT22;58893;53.130;8.158;2023-04-03T00:48:39;6.60;59.20
71188;DHT22;58893;53.130;8.158;2023-04-03T00:51:08;6.70;59.50
71188;DHT22;58893;53.130;8.158;2023-04-03T00:53:43;6.60;59.40
71188;DHT22;58893;53.130;8.158;2023-04-03T00:56:13;6.60;59.50
71188;DHT22;58893;53.130;8.158;2023-04-03T00:58:47;6.60;59.50
71188;DHT22;58893;53.130;8.158;2023-04-03T01:01:16;6.60;59.50
71188;DHT22;58893;53.130;8.158;2023-04-03T01:03:43;6.60;59.60
71188;DHT22;58893;53.130;8.158;2023-04-03T01:06:09;6.60;59.70
71188;DHT22;58893;53.130;8.158;2023-04-03T01:08:35;6.60;59.80
71188;DHT22;58893;53.130;8.158;2023-04-03T01:11:01;6.60;59.80
71188;DHT22;58893;53.130;8.158;2023-04-03T01:13:29;6.60;59.90
71188;DHT22;58893;53.130;8.158;2023-04-03T01:15:56;6.60;59.90
71188;DHT22;58893;53.130;8.158;2023-04-03T01:18:23;6.60;60.00
71188;DHT22;58893;53.130;8.158;2023-04-03T01:23:36;6.50;60.10
71188;DHT22;58893;53.130;8.158;2023-04-03T01:26:04;6.50;60.10
71188;DHT22;58893;53.130;8.158;2023-04-03T01:28:33;6.50;60.20
71188;DHT22;58893;53.130;8.158;2023-04-03T01:33:37;6.50;60.50
71188;DHT22;58893;53.130;8.158;2023-04-03T01:36:04;6.40;60.50
71188;DHT22;58893;53.130;8.158;2023-04-03T01:38:30;6.40;60.50
71188;DHT22;58893;53.130;8.158;2023-04-03T01:40:56;6.40;60.60
71188;DHT22;58893;53.130;8.158;2023-04-03T01:43:21;6.40;60.80
71188;DHT22;58893;53.130;8.158;2023-04-03T01:45:47;6.30;60.80
71188;DHT22;58893;53.130;8.158;2023-04-03T01:48:14;6.30;60.90
71188;DHT22;58893;53.130;8.158;2023-04-03T01:50:40;6.30;61.00
71188;DHT22;58893;53.130;8.158;2023-04-03T01:53:06;6.30;61.10
71188;DHT22;58893;53.130;8.158;2023-04-03T01:55:32;6.20;61.00
71188;DHT22;58893;53.130;8.158;2023-04-03T01:57:57;6.20;61.10
71188;DHT22;58893;53.130;8.158;2023-04-03T02:00:23;6.20;61.20
71188;DHT22;58893;53.130;8.158;2023-04-03T02:02:49;6.20;61.30
71188;DHT22;58893;53.130;8.158;2023-04-03T02:05:15;6.20;61.40
71188;DHT22;58893;53.130;8.158;2023-04-03T02:07:41;6.10;61.50
71188;DHT22;58893;53.130;8.158;2023-04-03T02:10:06;6.10;61.50
71188;DHT22;58893;53.130;8.158;2023-04-03T02:12:32;6.10;61.50
71188;DHT22;58893;53.130;8.158;2023-04-03T02:14:58;6.10;61.70
71188;DHT22;58893;53.130;8.158;2023-04-03T02:17:23;6.10;61.80
71188;DHT22;58893;53.130;8.158;2023-04-03T02:19:49;6.10;62.60
71188;DHT22;58893;53.130;8.158;2023-04-03T02:22:15;6.00;62.50
71188;DHT22;58893;53.130;8.158;2023-04-03T02:24:41;6.00;61.90
71188;DHT22;58893;53.130;8.158;2023-04-03T02:27:07;6.00;62.00
71188;DHT22;58893;53.130;8.158;2023-04-03T02:29:32;6.00;62.00
71188;DHT22;58893;53.130;8.158;2023-04-03T02:31:58;6.00;62.20
71188;DHT22;58893;53.130;8.158;2023-04-03T02:34:24;6.00;62.30
71188;DHT22;58893;53.130;8.158;2023-04-03T02:36:49;6.00;62.30
71188;DHT22;58893;53.130;8.158;2023-04-03T02:39:16;6.00;62.30
71188;DHT22;58893;53.130;8.158;2023-04-03T02:41:41;6.00;62.40
71188;DHT22;58893;53.130;8.158;2023-04-03T02:44:09;5.90;62.40
71188;DHT22;58893;53.130;8.158;2023-04-03T02:46:35;5.90;62.40
71188;DHT22;58893;53.130;8.158;2023-04-03T02:49:01;5.90;62.60
71188;DHT22;58893;53.130;8.158;2023-04-03T02:51:26;5.90;62.50
71188;DHT22;58893;53.130;8.158;2023-04-03T02:53:52;5.90;62.50
71188;DHT22;58893;53.130;8.158;2023-04-03T02:56:18;5.90;62.60
71188;DHT22;58893;53.130;8.158;2023-04-03T02:58:44;5.90;62.60
71188;DHT22;58893;53.130;8.158;2023-04-03T03:01:10;5.90;62.70
71188;DHT22;58893;53.130;8.158;2023-04-03T03:03:36;5.90;62.80
71188;DHT22;58893;53.130;8.158;2023-04-03T03:06:07;5.80;62.70
71188;DHT22;58893;53.130;8.158;2023-04-03T03:08:34;5.80;62.80
71188;DHT22;58893;53.130;8.158;2023-04-03T03:11:00;5.80;62.90
71188;DHT22;58893;53.130;8.158;2023-04-03T03:13:26;5.80;63.00
71188;DHT22;58893;53.130;8.158;2023-04-03T03:15:52;5.80;63.00
71188;DHT22;58893;53.130;8.158;2023-04-03T03:18:18;5.70;63.10
71188;DHT22;58893;53.130;8.158;2023-04-03T03:20:44;5.70;63.10
71188;DHT22;58893;53.130;8.158;2023-04-03T03:23:10;5.70;63.10
71188;DHT22;58893;53.130;8.158;2023-04-03T03:25:39;5.70;63.20
71188;DHT22;58893;53.130;8.158;2023-04-03T03:28:05;5.70;63.30
71188;DHT22;58893;53.130;8.158;2023-04-03T03:30:31;5.70;63.30
71188;DHT22;58893;53.130;8.158;2023-04-03T03:32:57;5.70;63.20
71188;DHT22;58893;53.130;8.158;2023-04-03T03:35:22;5.70;63.40
71188;DHT22;58893;53.130;8.158;2023-04-03T03:37:48;5.70;63.40
71188;DHT22;58893;53.130;8.158;2023-04-03T03:40:14;5.60;63.40
71188;DHT22;58893;53.130;8.158;2023-04-03T03:42:40;5.60;63.50
71188;DHT22;58893;53.130;8.158;2023-04-03T03:45:06;5.60;63.60
71188;DHT22;58893;53.130;8.158;2023-04-03T03:47:32;5.60;63.60
71188;DHT22;58893;53.130;8.158;2023-04-03T03:49:58;5.60;63.70
71188;DHT22;58893;53.130;8.158;2023-04-03T03:52:23;5.60;63.70
71188;DHT22;58893;53.130;8.158;2023-04-03T03:54:49;5.50;63.80
71188;DHT22;58893;53.130;8.158;2023-04-03T03:57:14;5.50;63.80
71188;DHT22;58893;53.130;8.158;2023-04-03T03:59:40;5.50;63.90
71188;DHT22;58893;53.130;8.158;2023-04-03T04:02:07;5.50;63.90
71188;DHT22;58893;53.130;8.158;2023-04-03T04:04:33;5.50;64.00
71188;DHT22;58893;53.130;8.158;2023-04-03T04:06:58;5.50;64.10
71188;DHT22;58893;53.130;8.158;2023-04-03T04:09:26;5.50;64.20
71188;DHT22;58893;53.130;8.158;2023-04-03T04:11:52;5.50;64.20
71188;DHT22;58893;53.130;8.158;2023-04-03T04:14:17;5.50;64.20
71188;DHT22;58893;53.130;8.158;2023-04-03T04:16:43;5.50;64.20
71188;DHT22;58893;53.130;8.158;2023-04-03T04:19:09;5.50;64.30
71188;DHT22;58893;53.130;8.158;2023-04-03T04:21:35;5.40;64.20
71188;DHT22;58893;53.130;8.158;2023-04-03T04:24:01;5.40;64.30
71188;DHT22;58893;53.130;8.158;2023-04-03T04:26:26;5.40;64.50
71188;DHT22;58893;53.130;8.158;2023-04-03T04:28:52;5.40;64.50
71188;DHT22;58893;53.130;8.158;2023-04-03T04:31:17;5.40;64.60
71188;DHT22;58893;53.130;8.158;2023-04-03T04:33:43;5.40;64.70
71188;DHT22;58893;53.130;8.158;2023-04-03T04:36:09;5.40;64.80
71188;DHT22;58893;53.130;8.158;2023-04-03T04:38:34;5.30;64.70
71188;DHT22;58893;53.130;8.158;2023-04-03T04:41:00;5.30;64.80
71188;DHT22;58893;53.130;8.158;2023-04-03T04:43:26;5.30;64.90
71188;DHT22;58893;53.130;8.158;2023-04-03T04:46:10;5.30;65.00
71188;DHT22;58893;53.130;8.158;2023-04-03T04:48:39;5.30;65.00
71188;DHT22;58893;53.130;8.158;2023-04-03T04:51:06;5.30;65.00
71188;DHT22;58893;53.130;8.158;2023-04-03T04:53:31;5.30;65.10
71188;DHT22;58893;53.130;8.158;2023-04-03T04:55:57;5.30;65.00
71188;DHT22;58893;53.130;8.158;2023-04-03T04:58:23;5.30;65.10
71188;DHT22;58893;53.130;8.158;2023-04-03T05:00:48;5.30;65.10
71188;DHT22;58893;53.130;8.158;2023-04-03T05:03:14;5.20;65.00
71188;DHT22;58893;53.130;8.158;2023-04-03T05:05:40;5.30;65.10
71188;DHT22;58893;53.130;8.158;2023-04-03T05:08:06;5.30;65.00
71188;DHT22;58893;53.130;8.158;2023-04-03T05:10:33;5.30;64.90
71188;DHT22;58893;53.130;8.158;2023-04-03T05:12:59;5.30;64.90
71188;DHT22;58893;53.130;8.158;2023-04-03T05:15:25;5.30;64.90
71188;DHT22;58893;53.130;8.158;2023-04-03T05:17:51;5.30;64.80
71188;DHT22;58893;53.130;8.158;2023-04-03T05:20:17;5.30;65.00
71188;DHT22;58893;53.130;8.158;2023-04-03T05:22:43;5.30;65.10
71188;DHT22;58893;53.130;8.158;2023-04-03T05:25:09;5.30;65.10
71188;DHT22;58893;53.130;8.158;2023-04-03T05:27:35;5.30;65.20
71188;DHT22;58893;53.130;8.158;2023-04-03T05:30:01;5.30;65.30
71188;DHT22;58893;53.130;8.158;2023-04-03T05:32:27;5.30;65.40
71188;DHT22;58893;53.130;8.158;2023-04-03T05:34:53;5.40;65.90
71188;DHT22;58893;53.130;8.158;2023-04-03T05:37:19;5.50;66.50
71188;DHT22;58893;53.130;8.158;2023-04-03T05:39:45;5.80;66.70
71188;DHT22;58893;53.130;8.158;2023-04-03T05:42:10;6.20;65.30
71188;DHT22;58893;53.130;8.158;2023-04-03T05:44:37;6.50;64.00
71188;DHT22;58893;53.130;8.158;2023-04-03T05:47:03;6.60;63.10
71188;DHT22;58893;53.130;8.158;2023-04-03T05:49:29;6.70;62.50
71188;DHT22;58893;53.130;8.158;2023-04-03T05:51:55;6.70;62.70
71188;DHT22;58893;53.130;8.158;2023-04-03T05:54:24;6.90;64.20
71188;DHT22;58893;53.130;8.158;2023-04-03T05:56:50;7.30;64.10
71188;DHT22;58893;53.130;8.158;2023-04-03T05:59:17;7.80;62.40
71188;DHT22;58893;53.130;8.158;2023-04-03T06:01:43;8.20;60.50
71188;DHT22;58893;53.130;8.158;2023-04-03T06:04:09;8.30;59.10
71188;DHT22;58893;53.130;8.158;2023-04-03T06:09:15;8.40;58.90
71188;DHT22;58893;53.130;8.158;2023-04-03T06:11:41;8.60;59.40
71188;DHT22;58893;53.130;8.158;2023-04-03T06:14:07;8.70;58.80
71188;DHT22;58893;53.130;8.158;2023-04-03T06:16:33;8.90;57.60
71188;DHT22;58893;53.130;8.158;2023-04-03T06:18:59;9.00;56.80
71188;DHT22;58893;53.130;8.158;2023-04-03T06:21:25;9.10;56.60
71188;DHT22;58893;53.130;8.158;2023-04-03T06:23:51;9.20;56.20
71188;DHT22;58893;53.130;8.158;2023-04-03T06:26:17;9.30;56.00
71188;DHT22;58893;53.130;8.158;2023-04-03T06:28:43;9.30;55.80
71188;DHT22;58893;53.130;8.158;2023-04-03T06:31:08;9.40;55.50
71188;DHT22;58893;53.130;8.158;2023-04-03T06:33:34;9.50;55.30
71188;DHT22;58893;53.130;8.158;2023-04-03T06:36:03;9.50;55.00
71188;DHT22;58893;53.130;8.158;2023-04-03T06:38:29;9.50;54.60
71188;DHT22;58893;53.130;8.158;2023-04-03T06:40:55;9.50;54.50
71188;DHT22;58893;53.130;8.158;2023-04-03T06:43:21;9.50;54.30
71188;DHT22;58893;53.130;8.158;2023-04-03T06:45:47;9.60;54.50
71188;DHT22;58893;53.130;8.158;2023-04-03T06:48:13;9.60;53.80
71188;DHT22;58893;53.130;8.158;2023-04-03T06:50:39;9.50;53.80
71188;DHT22;58893;53.130;8.158;2023-04-03T06:53:05;9.50;53.90
71188;DHT22;58893;53.130;8.158;2023-04-03T06:55:32;9.40;53.80
71188;DHT22;58893;53.130;8.158;2023-04-03T06:57:57;9.30;53.90
71188;DHT22;58893;53.130;8.158;2023-04-03T07:00:23;9.20;53.80
71188;DHT22;58893;53.130;8.158;2023-04-03T07:02:48;9.00;53.90
71188;DHT22;58893;53.130;8.158;2023-04-03T07:05:14;8.90;54.30
71188;DHT22;58893;53.130;8.158;2023-04-03T07:07:40;8.80;54.30
71188;DHT22;58893;53.130;8.158;2023-04-03T07:10:07;8.70;54.60
71188;DHT22;58893;53.130;8.158;2023-04-03T07:12:33;8.60;55.10
71188;DHT22;58893;53.130;8.158;2023-04-03T07:14:58;8.50;55.30
71188;DHT22;58893;53.130;8.158;2023-04-03T07:17:24;8.50;55.20
71188;DHT22;58893;53.130;8.158;2023-04-03T07:19:51;8.40;54.80
71188;DHT22;58893;53.130;8.158;2023-04-03T07:22:17;8.40;54.90
71188;DHT22;58893;53.130;8.158;2023-04-03T07:24:43;8.40;55.20
71188;DHT22;58893;53.130;8.158;2023-04-03T07:27:09;8.40;55.10
71188;DHT22;58893;53.130;8.158;2023-04-03T07:29:35;8.40;55.20
71188;DHT22;58893;53.130;8.158;2023-04-03T07:32:02;8.40;54.60
71188;DHT22;58893;53.130;8.158;2023-04-03T07:34:27;8.40;54.80
71188;DHT22;58893;53.130;8.158;2023-04-03T07:36:53;8.40;54.80
71188;DHT22;58893;53.130;8.158;2023-04-03T07:39:19;8.40;54.60
71188;DHT22;58893;53.130;8.158;2023-04-03T07:41:44;8.50;54.10
71188;DHT22;58893;53.130;8.158;2023-04-03T07:44:11;8.50;53.40
71188;DHT22;58893;53.130;8.158;2023-04-03T07:46:37;8.60;53.50
71188;DHT22;58893;53.130;8.158;2023-04-03T07:49:03;8.70;53.60
71188;DHT22;58893;53.130;8.158;2023-04-03T07:51:29;8.80;53.60
71188;DHT22;58893;53.130;8.158;2023-04-03T07:53:55;8.90;53.30
71188;DHT22;58893;53.130;8.158;2023-04-03T07:56:21;9.00;53.20
71188;DHT22;58893;53.130;8.158;2023-04-03T07:58:48;9.10;52.80
71188;DHT22;58893;53.130;8.158;2023-04-03T08:01:13;9.20;52.00
71188;DHT22;58893;53.130;8.158;2023-04-03T08:03:39;9.20;51.90
71188;DHT22;58893;53.130;8.158;2023-04-03T08:06:06;9.30;51.80
71188;DHT22;58893;53.130;8.158;2023-04-03T08:08:33;9.40;51.10
71188;DHT22;58893;53.130;8.158;2023-04-03T08:11:00;9.50;51.30
71188;DHT22;58893;53.130;8.158;2023-04-03T08:13:26;9.60;51.20
71188;DHT22;58893;53.130;8.158;2023-04-03T08:15:52;9.60;51.30
71188;DHT22;58893;53.130;8.158;2023-04-03T08:18:18;9.70;51.80
71188;DHT22;58893;53.130;8.158;2023-04-03T08:20:46;9.80;52.20
71188;DHT22;58893;53.130;8.158;2023-04-03T08:23:12;10.00;50.80
71188;DHT22;58893;53.130;8.158;2023-04-03T08:25:43;10.10;50.00
71188;DHT22;58893;53.130;8.158;2023-04-03T08:28:09;10.20;49.40
71188;DHT22;58893;53.130;8.158;2023-04-03T08:30:38;10.30;49.10
71188;DHT22;58893;53.130;8.158;2023-04-03T08:33:04;10.30;48.60
71188;DHT22;58893;53.130;8.158;2023-04-03T08:35:29;10.40;48.80
71188;DHT22;58893;53.130;8.158;2023-04-03T08:37:55;10.50;49.10
71188;DHT22;58893;53.130;8.158;2023-04-03T08:40:22;10.50;48.70
71188;DHT22;58893;53.130;8.158;2023-04-03T08:45:51;10.60;46.80
71188;DHT22;58893;53.130;8.158;2023-04-03T08:48:36;10.70;46.70
71188;DHT22;58893;53.130;8.158;2023-04-03T08:51:10;10.80;46.60
71188;DHT22;58893;53.130;8.158;2023-04-03T08:53:43;10.80;45.60
71188;DHT22;58893;53.130;8.158;2023-04-03T08:56:10;10.80;45.80
71188;DHT22;58893;53.130;8.158;2023-04-03T08:58:42;10.90;46.20
71188;DHT22;58893;53.130;8.158;2023-04-03T09:01:21;10.90;45.30
71188;DHT22;58893;53.130;8.158;2023-04-03T09:03:48;11.00;45.40
71188;DHT22;58893;53.130;8.158;2023-04-03T09:06:29;11.00;44.60
71188;DHT22;58893;53.130;8.158;2023-04-03T09:09:14;11.00;43.50
71188;DHT22;58893;53.130;8.158;2023-04-03T09:12:00;11.00;43.60
71188;DHT22;58893;53.130;8.158;2023-04-03T09:23:42;11.00;41.50
71188;DHT22;58893;53.130;8.158;2023-04-03T09:26:14;11.00;39.90
71188;DHT22;58893;53.130;8.158;2023-04-03T09:28:41;11.00;39.90
71188;DHT22;58893;53.130;8.158;2023-04-03T09:31:28;11.00;39.60
71188;DHT22;58893;53.130;8.158;2023-04-03T09:33:58;10.90;35.60
71188;DHT22;58893;53.130;8.158;2023-04-03T09:36:49;10.90;35.50
71188;DHT22;58893;53.130;8.158;2023-04-03T09:39:25;10.80;35.40
71188;DHT22;58893;53.130;8.158;2023-04-03T09:42:24;10.80;35.60
71188;DHT22;58893;53.130;8.158;2023-04-03T09:45:03;10.80;36.70
71188;DHT22;58893;53.130;8.158;2023-04-03T09:47:36;10.70;36.50
71188;DHT22;58893;53.130;8.158;2023-04-03T09:50:19;10.70;36.30
71188;DHT22;58893;53.130;8.158;2023-04-03T09:52:48;10.70;36.70
71188;DHT22;58893;53.130;8.158;2023-04-03T09:55:17;10.60;36.80
71188;DHT22;58893;53.130;8.158;2023-04-03T09:57:46;10.60;36.60
71188;DHT22;58893;53.130;8.158;2023-04-03T10:00:38;10.60;35.80
71188;DHT22;58893;53.130;8.158;2023-04-03T10:03:08;10.60;36.30
71188;DHT22;58893;53.130;8.158;2023-04-03T10:05:48;10.60;36.20
71188;DHT22;58893;53.130;8.158;2023-04-03T10:10:42;10.50;37.00
71188;DHT22;58893;53.130;8.158;2023-04-03T10:13:19;10.50;37.20
71188;DHT22;58893;53.130;8.158;2023-04-03T10:15:51;10.60;38.00
71188;DHT22;58893;53.130;8.158;2023-04-03T10:21:10;10.60;37.10
71188;DHT22;58893;53.130;8.158;2023-04-03T10:23:45;10.60;36.50
71188;DHT22;58893;53.130;8.158;2023-04-03T10:29:13;10.60;35.30
71188;DHT22;58893;53.130;8.158;2023-04-03T10:34:25;10.70;33.90
71188;DHT22;58893;53.130;8.158;2023-04-03T10:37:09;10.70;34.50
71188;DHT22;58893;53.130;8.158;2023-04-03T10:50:31;11.00;36.10
71188;DHT22;58893;53.130;8.158;2023-04-03T10:55:58;11.10;35.60
71188;DHT22;58893;53.130;8.158;2023-04-03T10:58:32;11.10;34.00
71188;DHT22;58893;53.130;8.158;2023-04-03T11:01:07;11.20;34.40
71188;DHT22;58893;53.130;8.158;2023-04-03T11:03:44;11.20;34.60
71188;DHT22;58893;53.130;8.158;2023-04-03T11:06:15;11.30;34.50
71188;DHT22;58893;53.130;8.158;2023-04-03T11:08:46;11.30;34.40
71188;DHT22;58893;53.130;8.158;2023-04-03T11:11:30;11.40;34.90
71188;DHT22;58893;53.130;8.158;2023-04-03T11:14:17;11.40;34.50
71188;DHT22;58893;53.130;8.158;2023-04-03T11:16:49;11.50;34.40
71188;DHT22;58893;53.130;8.158;2023-04-03T11:22:24;11.60;34.50
71188;DHT22;58893;53.130;8.158;2023-04-03T11:25:25;11.50;34.70
71188;DHT22;58893;53.130;8.158;2023-04-03T11:27:55;11.60;34.70
71188;DHT22;58893;53.130;8.158;2023-04-03T11:30:23;11.60;34.60
71188;DHT22;58893;53.130;8.158;2023-04-03T11:35:49;11.70;34.30
71188;DHT22;58893;53.130;8.158;2023-04-03T11:38:46;11.70;34.00
71188;DHT22;58893;53.130;8.158;2023-04-03T11:41:13;11.70;34.00
71188;DHT22;58893;53.130;8.158;2023-04-03T11:46:21;11.70;33.90
71188;DHT22;58893;53.130;8.158;2023-04-03T11:48:50;11.70;33.70
71188;DHT22;58893;53.130;8.158;2023-04-03T11:53:53;11.70;33.20
71188;DHT22;58893;53.130;8.158;2023-04-03T11:59:16;11.70;33.80
71188;DHT22;58893;53.130;8.158;2023-04-03T12:01:54;11.70;33.30
71188;DHT22;58893;53.130;8.158;2023-04-03T12:04:23;11.70;33.20
71188;DHT22;58893;53.130;8.158;2023-04-03T12:06:54;11.70;33.70
71188;DHT22;58893;53.130;8.158;2023-04-03T12:09:33;11.70;33.70
71188;DHT22;58893;53.130;8.158;2023-04-03T12:12:01;11.70;33.80
71188;DHT22;58893;53.130;8.158;2023-04-03T12:14:46;11.70;33.30
71188;DHT22;58893;53.130;8.158;2023-04-03T12:17:26;11.70;32.80
71188;DHT22;58893;53.130;8.158;2023-04-03T12:19:52;11.70;32.30
71188;DHT22;58893;53.130;8.158;2023-04-03T12:22:20;11.80;32.80
71188;DHT22;58893;53.130;8.158;2023-04-03T12:24:52;11.80;32.10
71188;DHT22;58893;53.130;8.158;2023-04-03T12:29:54;11.90;32.90
71188;DHT22;58893;53.130;8.158;2023-04-03T12:51:19;12.00;34.60
71188;DHT22;58893;53.130;8.158;2023-04-03T12:53:45;12.00;34.40
71188;DHT22;58893;53.130;8.158;2023-04-03T12:58:44;12.00;33.70
71188;DHT22;58893;53.130;8.158;2023-04-03T13:01:20;12.00;33.60
71188;DHT22;58893;53.130;8.158;2023-04-03T13:03:57;12.00;34.30
71188;DHT22;58893;53.130;8.158;2023-04-03T13:06:30;12.00;34.90
71188;DHT22;58893;53.130;8.158;2023-04-03T13:08:59;12.00;34.50
71188;DHT22;58893;53.130;8.158;2023-04-03T13:11:27;11.90;34.00
71188;DHT22;58893;53.130;8.158;2023-04-03T13:14:01;11.90;34.00
71188;DHT22;58893;53.130;8.158;2023-04-03T13:16:29;11.90;33.90
71188;DHT22;58893;53.130;8.158;2023-04-03T13:18:55;11.90;33.70
71188;DHT22;58893;53.130;8.158;2023-04-03T13:21:32;11.90;34.20
71188;DHT22;58893;53.130;8.158;2023-04-03T13:24:01;11.90;34.00
71188;DHT22;58893;53.130;8.158;2023-04-03T13:26:29;11.80;34.20
71188;DHT22;58893;53.130;8.158;2023-04-03T13:29:00;11.80;34.00
71188;DHT22;58893;53.130;8.158;2023-04-03T13:31:36;11.80;34.30
71188;DHT22;58893;53.130;8.158;2023-04-03T13:34:07;11.80;34.40
71188;DHT22;58893;53.130;8.158;2023-04-03T13:36:45;11.80;34.70
71188;DHT22;58893;53.130;8.158;2023-04-03T13:41:48;11.80;35.10
71188;DHT22;58893;53.130;8.158;2023-04-03T13:47:00;11.80;34.20
71188;DHT22;58893;53.130;8.158;2023-04-03T13:51:52;11.80;34.30
71188;DHT22;58893;53.130;8.158;2023-04-03T13:56:54;11.90;34.00
71188;DHT22;58893;53.130;8.158;2023-04-03T13:59:32;11.90;33.70
71188;DHT22;58893;53.130;8.158;2023-04-03T14:07:11;11.90;33.70
71188;DHT22;58893;53.130;8.158;2023-04-03T14:09:37;11.90;33.90
71188;DHT22;58893;53.130;8.158;2023-04-03T14:12:24;11.90;33.80
71188;DHT22;58893;53.130;8.158;2023-04-03T14:14:51;11.90;33.30
71188;DHT22;58893;53.130;8.158;2023-04-03T14:17:20;11.90;33.40
71188;DHT22;58893;53.130;8.158;2023-04-03T14:19:47;11.80;33.70
71188;DHT22;58893;53.130;8.158;2023-04-03T14:22:27;11.90;34.10
71188;DHT22;58893;53.130;8.158;2023-04-03T14:24:54;11.90;34.70
71188;DHT22;58893;53.130;8.158;2023-04-03T14:27:26;11.90;35.10
71188;DHT22;58893;53.130;8.158;2023-04-03T14:29:53;11.90;35.60
71188;DHT22;58893;53.130;8.158;2023-04-03T14:32:21;11.80;35.90
71188;DHT22;58893;53.130;8.158;2023-04-03T14:34:48;11.80;36.10
71188;DHT22;58893;53.130;8.158;2023-04-03T14:37:21;11.80;36.50
71188;DHT22;58893;53.130;8.158;2023-04-03T14:39:48;11.80;36.30
71188;DHT22;58893;53.130;8.158;2023-04-03T14:42:21;11.80;36.00
71188;DHT22;58893;53.130;8.158;2023-04-03T14:44:47;11.80;35.80
71188;DHT22;58893;53.130;8.158;2023-04-03T14:47:17;11.80;35.10
71188;DHT22;58893;53.130;8.158;2023-04-03T14:49:43;11.70;35.10
71188;DHT22;58893;53.130;8.158;2023-04-03T14:54:48;11.70;36.60
71188;DHT22;58893;53.130;8.158;2023-04-03T14:57:14;11.80;37.90
71188;DHT22;58893;53.130;8.158;2023-04-03T14:59:41;11.80;39.90
71188;DHT22;58893;53.130;8.158;2023-04-03T15:04:55;11.80;38.80
71188;DHT22;58893;53.130;8.158;2023-04-03T15:07:22;11.80;38.30
71188;DHT22;58893;53.130;8.158;2023-04-03T15:09:49;11.80;38.90
71188;DHT22;58893;53.130;8.158;2023-04-03T15:12:15;11.70;39.40
71188;DHT22;58893;53.130;8.158;2023-04-03T15:14:41;11.70;40.00
71188;DHT22;58893;53.130;8.158;2023-04-03T15:17:14;11.60;40.50
71188;DHT22;58893;53.130;8.158;2023-04-03T15:19:41;11.50;40.90
71188;DHT22;58893;53.130;8.158;2023-04-03T15:22:08;11.40;41.50
71188;DHT22;58893;53.130;8.158;2023-04-03T15:24:38;11.40;41.90
71188;DHT22;58893;53.130;8.158;2023-04-03T15:27:03;11.30;42.10
71188;DHT22;58893;53.130;8.158;2023-04-03T15:29:29;11.30;42.20
71188;DHT22;58893;53.130;8.158;2023-04-03T15:31:55;11.20;42.00
71188;DHT22;58893;53.130;8.158;2023-04-03T15:34:21;11.20;42.60
71188;DHT22;58893;53.130;8.158;2023-04-03T15:36:47;11.20;42.60
71188;DHT22;58893;53.130;8.158;2023-04-03T15:39:12;11.20;43.00
71188;DHT22;58893;53.130;8.158;2023-04-03T15:41:38;11.20;43.30
71188;DHT22;58893;53.130;8.158;2023-04-03T15:44:03;11.10;43.70
71188;DHT22;58893;53.130;8.158;2023-04-03T15:46:29;11.10;43.70
71188;DHT22;58893;53.130;8.158;2023-04-03T15:48:55;11.10;43.80
71188;DHT22;58893;53.130;8.158;2023-04-03T15:51:21;11.10;44.10
71188;DHT22;58893;53.130;8.158;2023-04-03T15:56:12;11.10;44.00
71188;DHT22;58893;53.130;8.158;2023-04-03T15:58:38;11.10;44.70
71188;DHT22;58893;53.130;8.158;2023-04-03T16:01:04;11.10;45.00
71188;DHT22;58893;53.130;8.158;2023-04-03T16:03:30;11.10;45.80
71188;DHT22;58893;53.130;8.158;2023-04-03T16:05:56;11.10;45.40
71188;DHT22;58893;53.130;8.158;2023-04-03T16:08:22;11.00;45.50
71188;DHT22;58893;53.130;8.158;2023-04-03T16:10:48;11.00;45.80
71188;DHT22;58893;53.130;8.158;2023-04-03T16:13:14;11.00;46.20
71188;DHT22;58893;53.130;8.158;2023-04-03T16:15:40;11.00;46.50
71188;DHT22;58893;53.130;8.158;2023-04-03T16:18:07;11.00;46.70
71188;DHT22;58893;53.130;8.158;2023-04-03T16:20:34;11.00;47.10
71188;DHT22;58893;53.130;8.158;2023-04-03T16:23:00;11.00;47.40
71188;DHT22;58893;53.130;8.158;2023-04-03T16:25:26;10.90;47.60
71188;DHT22;58893;53.130;8.158;2023-04-03T16:27:52;10.90;48.50
71188;DHT22;58893;53.130;8.158;2023-04-03T16:30:18;10.90;48.10
71188;DHT22;58893;53.130;8.158;2023-04-03T16:32:43;10.90;48.10
71188;DHT22;58893;53.130;8.158;2023-04-03T16:35:10;10.80;47.80
71188;DHT22;58893;53.130;8.158;2023-04-03T16:37:37;10.80;47.70
71188;DHT22;58893;53.130;8.158;2023-04-03T16:40:03;10.80;47.80
71188;DHT22;58893;53.130;8.158;2023-04-03T16:42:30;10.70;47.80
71188;DHT22;58893;53.130;8.158;2023-04-03T16:44:56;10.70;48.00
71188;DHT22;58893;53.130;8.158;2023-04-03T16:47:21;10.70;48.80
71188;DHT22;58893;53.130;8.158;2023-04-03T16:49:47;10.70;48.60
71188;DHT22;58893;53.130;8.158;2023-04-03T16:52:13;10.60;49.00
71188;DHT22;58893;53.130;8.158;2023-04-03T16:54:39;10.60;49.40
71188;DHT22;58893;53.130;8.158;2023-04-03T16:57:05;10.60;49.90
71188;DHT22;58893;53.130;8.158;2023-04-03T16:59:31;10.60;50.20
71188;DHT22;58893;53.130;8.158;2023-04-03T17:01:56;10.60;50.40
71188;DHT22;58893;53.130;8.158;2023-04-03T17:04:22;10.60;50.60
71188;DHT22;58893;53.130;8.158;2023-04-03T17:06:48;10.50;50.80
71188;DHT22;58893;53.130;8.158;2023-04-03T17:09:13;10.50;50.90
71188;DHT22;58893;53.130;8.158;2023-04-03T17:11:40;10.50;51.10
71188;DHT22;58893;53.130;8.158;2023-04-03T17:14:06;10.50;51.40
71188;DHT22;58893;53.130;8.158;2023-04-03T17:16:34;10.50;52.20
71188;DHT22;58893;53.130;8.158;2023-04-03T17:19:00;10.40;51.90
71188;DHT22;58893;53.130;8.158;2023-04-03T17:21:26;10.40;52.20
71188;DHT22;58893;53.130;8.158;2023-04-03T17:23:55;10.40;52.40
71188;DHT22;58893;53.130;8.158;2023-04-03T17:26:23;10.40;52.60
71188;DHT22;58893;53.130;8.158;2023-04-03T17:28:50;10.40;53.00
71188;DHT22;58893;53.130;8.158;2023-04-03T17:31:16;10.30;53.10
71188;DHT22;58893;53.130;8.158;2023-04-03T17:33:42;10.30;53.10